KLDM/LDM METAR and TAF weather

Enter ICAO airport designator
Station Type Date Time Source
KLDM METAR 2023/01/30 10:15 UTC NOAA

KLDM 301015Z AUTO 33006KT 5SM -SN SCT020 BKN025 OVC065 M08/M14 A3027 RMK AO2 T10761136


Station Type Date Time Source
KLDM Decoded METAR 2023/01/30 10:15 UTC NOAA

Ludington, Mason County Airport, MI, United States (KLDM) 43-58N 86-24W
Jan 30, 2023 - 05:15 AM EST / 2023.01.30 1015 UTC
Wind: from the NNW (330 degrees) at 7 MPH (6 KT):0
Visibility: 5 mile(s):0
Sky conditions: overcast
Weather: light snow
Temperature: 18.3 F (-7.6 C)
Windchill: 8 F (-13 C):1
Dew Point: 7.5 F (-13.6 C)
Relative Humidity: 62%
Pressure (altimeter): 30.27 in. Hg (1025 hPa)
ob: KLDM 301015Z AUTO 33006KT 5SM -SN SCT020 BKN025 OVC065 M08/M14 A3027 RMK AO2 T10761136
cycle: 10

Station Type Date Time Source
KLDM TAF UTC NOAA

Error!

Example: see airport list